createdAt,value
2022-12-17T00:00:48.991Z,16.33
2022-12-17T00:03:34.842Z,15.50
2022-12-17T00:06:34.782Z,16.25
2022-12-17T00:09:20.006Z,16.38
2022-12-17T00:12:05.461Z,15.88
2022-12-17T00:14:50.790Z,15.50
2022-12-17T00:17:37.526Z,15.70
2022-12-17T00:20:23.798Z,16.20
2022-12-17T00:23:16.958Z,15.85
2022-12-17T00:26:02.333Z,15.65
2022-12-17T00:28:47.789Z,15.13
2022-12-17T00:31:33.186Z,15.40
2022-12-17T00:34:19.903Z,15.13
2022-12-17T00:37:05.355Z,16.15
2022-12-17T00:39:53.568Z,15.48
2022-12-17T00:42:44.182Z,15.55
2022-12-17T00:45:29.527Z,15.50
2022-12-17T00:48:15.099Z,15.75
2022-12-17T00:51:01.902Z,15.10
2022-12-17T00:53:47.296Z,14.98
2022-12-17T00:56:32.811Z,15.02
2022-12-17T00:59:18.163Z,13.93
2022-12-17T01:02:03.641Z,14.90
2022-12-17T01:04:48.920Z,15.23
2022-12-17T01:07:35.747Z,15.73
2022-12-17T01:10:21.290Z,14.57
2022-12-17T01:13:03.039Z,16.35
2022-12-17T01:15:48.497Z,14.85
2022-12-17T01:18:36.927Z,16.67
2022-12-17T01:21:22.449Z,15.10
2022-12-17T01:24:09.016Z,14.20
2022-12-17T01:26:55.223Z,15.52
2022-12-17T01:29:41.559Z,14.98
2022-12-17T01:32:27.172Z,15.10
2022-12-17T01:35:12.526Z,15.95
2022-12-17T01:37:57.916Z,14.80
2022-12-17T01:40:46.871Z,16.67
2022-12-17T01:43:32.373Z,16.45
2022-12-17T01:46:18.288Z,16.20
2022-12-17T01:49:06.193Z,15.73
2022-12-17T01:51:52.626Z,15.57
2022-12-17T01:54:38.450Z,14.88
2022-12-17T01:57:26.164Z,16.02
2022-12-17T02:00:16.836Z,15.02
2022-12-17T02:03:02.832Z,15.35
2022-12-17T02:05:52.872Z,16.60
2022-12-17T02:08:46.392Z,16.75
2022-12-17T02:11:43.006Z,16.55
2022-12-17T02:14:37.780Z,15.57
2022-12-17T02:17:27.747Z,16.00
2022-12-17T02:20:25.727Z,15.65
2022-12-17T02:23:21.046Z,15.77
2022-12-17T02:26:11.007Z,16.38
2022-12-17T02:29:01.526Z,16.52
2022-12-17T02:31:48.369Z,15.43
2022-12-17T02:34:33.832Z,16.38
2022-12-17T02:37:19.191Z,14.93
2022-12-17T02:40:04.524Z,15.18
2022-12-17T02:42:50.507Z,15.32
2022-12-17T02:45:38.714Z,15.95
2022-12-17T02:48:26.539Z,15.60
2022-12-17T02:51:11.803Z,15.48
2022-12-17T02:54:04.107Z,15.43
2022-12-17T02:56:49.616Z,15.00
2022-12-17T02:59:34.251Z,14.75
2022-12-17T03:02:21.274Z,16.23
2022-12-17T03:05:27.656Z,16.15
2022-12-17T03:08:11.191Z,16.48
2022-12-17T03:10:56.862Z,16.55
2022-12-17T03:13:42.651Z,16.52
2022-12-17T03:16:34.203Z,16.98
2022-12-17T03:19:23.904Z,16.48
2022-12-17T03:22:11.667Z,16.73
2022-12-17T03:24:57.127Z,18.63
2022-12-17T03:27:42.460Z,15.93
2022-12-17T03:30:33.188Z,16.17
2022-12-17T03:33:20.931Z,16.17
2022-12-17T03:36:11.152Z,16.55
2022-12-17T03:38:56.579Z,17.25
2022-12-17T03:41:41.854Z,16.25
2022-12-17T03:44:26.468Z,15.65
2022-12-17T03:47:11.891Z,16.17
2022-12-17T03:49:57.373Z,16.60
2022-12-17T03:52:43.972Z,17.15
2022-12-17T03:55:29.377Z,17.27
2022-12-17T03:58:14.828Z,17.63
2022-12-17T04:01:00.408Z,16.75
2022-12-17T04:03:45.764Z,17.67
2022-12-17T04:06:31.058Z,17.60
2022-12-17T04:09:17.788Z,18.20
2022-12-17T04:12:03.074Z,15.95
2022-12-17T04:14:53.732Z,15.18
2022-12-17T04:17:39.151Z,15.55
2022-12-17T04:20:25.551Z,17.10
2022-12-17T04:23:11.063Z,18.65
2022-12-17T04:25:57.795Z,18.05
2022-12-17T04:28:43.163Z,17.98
2022-12-17T04:31:28.676Z,18.08
2022-12-17T04:34:14.049Z,17.63
2022-12-17T04:36:59.456Z,15.60
2022-12-17T04:39:44.833Z,18.00
2022-12-17T04:42:31.615Z,17.23
2022-12-17T04:45:17.118Z,17.73
2022-12-17T04:48:02.543Z,17.52
2022-12-17T04:50:47.979Z,16.38
2022-12-17T04:53:33.637Z,15.43
2022-12-17T04:56:21.695Z,16.08
2022-12-17T04:59:08.331Z,16.33
2022-12-17T05:01:53.790Z,16.40
2022-12-17T05:04:39.168Z,17.02
2022-12-17T05:07:24.569Z,18.77
2022-12-17T05:10:10.022Z,17.17
2022-12-17T05:12:55.330Z,18.58
2022-12-17T05:15:42.071Z,17.33
2022-12-17T05:18:28.021Z,17.85
2022-12-17T05:21:13.544Z,21.50
2022-12-17T05:23:59.042Z,17.92
2022-12-17T05:26:46.836Z,16.33
2022-12-17T05:29:32.442Z,16.10
2022-12-17T05:32:19.131Z,16.17
2022-12-17T05:35:04.450Z,16.73
2022-12-17T05:37:50.507Z,16.95
2022-12-17T05:40:35.852Z,17.23
2022-12-17T05:43:22.708Z,16.23
2022-12-17T05:46:08.245Z,16.27
2022-12-17T05:48:55.368Z,16.10
2022-12-17T05:51:41.306Z,18.48
2022-12-17T05:54:27.441Z,19.17
2022-12-17T05:57:12.874Z,18.52
2022-12-17T05:59:58.303Z,17.63
2022-12-17T06:02:44.229Z,17.33
2022-12-17T06:05:31.138Z,16.23
2022-12-17T06:08:22.055Z,19.02
2022-12-17T06:11:07.533Z,17.50
2022-12-17T06:13:52.843Z,18.55
2022-12-17T06:16:38.362Z,17.80
2022-12-17T06:19:23.776Z,17.67
2022-12-17T06:22:10.447Z,16.80
2022-12-17T06:24:56.061Z,15.98
2022-12-17T06:27:41.497Z,16.75
2022-12-17T06:30:27.811Z,16.10
2022-12-17T06:33:22.264Z,14.65
2022-12-17T06:36:07.709Z,15.20
2022-12-17T06:38:54.554Z,13.88
2022-12-17T06:41:39.979Z,14.52
2022-12-17T06:44:25.542Z,14.85
2022-12-17T06:47:11.049Z,14.68
2022-12-17T06:50:01.111Z,14.85
2022-12-17T06:52:47.021Z,13.05
2022-12-17T06:55:33.823Z,13.65
2022-12-17T06:58:19.697Z,14.77
2022-12-17T07:01:05.356Z,14.30
2022-12-17T07:03:50.833Z,14.98
2022-12-17T07:06:36.274Z,15.68
2022-12-17T07:09:21.643Z,14.85
2022-12-17T07:12:08.425Z,15.15
2022-12-17T07:14:53.648Z,13.68
2022-12-17T07:17:42.014Z,15.00
2022-12-17T07:20:28.731Z,14.27
2022-12-17T07:23:14.317Z,15.82
2022-12-17T07:25:59.698Z,16.30
2022-12-17T07:28:46.556Z,17.05
2022-12-17T07:31:32.144Z,16.45
2022-12-17T07:34:17.527Z,15.93
2022-12-17T07:37:08.314Z,17.63
2022-12-17T07:39:55.193Z,15.85
2022-12-17T07:42:55.073Z,15.75
2022-12-17T07:45:41.859Z,15.10
2022-12-17T07:48:27.074Z,16.75
2022-12-17T07:51:12.433Z,16.65
2022-12-17T07:53:57.900Z,15.40
2022-12-17T07:56:43.322Z,15.27
2022-12-17T07:59:28.729Z,16.67
2022-12-17T08:02:15.770Z,15.45
2022-12-17T08:05:01.048Z,15.80
2022-12-17T08:07:46.559Z,16.92
2022-12-17T08:10:32.028Z,16.23
2022-12-17T08:13:19.287Z,15.13
2022-12-17T08:16:05.463Z,15.63
2022-12-17T08:18:52.569Z,17.35
2022-12-17T08:21:38.038Z,16.45
2022-12-17T08:24:23.985Z,17.00
2022-12-17T08:27:09.411Z,16.40
2022-12-17T08:29:54.626Z,16.15
2022-12-17T08:32:40.041Z,17.20
2022-12-17T08:35:26.787Z,16.10
2022-12-17T08:38:12.366Z,16.52
2022-12-17T08:40:57.676Z,16.13
2022-12-17T08:43:48.546Z,17.67
2022-12-17T08:46:34.112Z,17.30
2022-12-17T08:49:19.487Z,17.25
2022-12-17T08:52:06.353Z,18.13
2022-12-17T08:54:51.893Z,16.48
2022-12-17T08:57:37.278Z,18.35
2022-12-17T09:00:23.410Z,18.75
2022-12-17T09:03:14.423Z,17.77
2022-12-17T09:05:59.898Z,20.35
2022-12-17T09:08:46.486Z,18.95
2022-12-17T09:11:32.072Z,18.25
2022-12-17T09:14:17.416Z,18.63
2022-12-17T09:17:03.056Z,19.25
2022-12-17T09:19:48.247Z,18.23
2022-12-17T09:22:33.687Z,19.20
2022-12-17T09:25:20.481Z,17.90
2022-12-17T09:28:05.983Z,17.83
2022-12-17T09:30:51.513Z,16.30
2022-12-17T09:33:42.570Z,17.90
2022-12-17T09:36:28.229Z,17.05
2022-12-17T09:39:13.704Z,16.60
2022-12-17T09:42:18.669Z,15.65
2022-12-17T09:45:09.571Z,15.23
2022-12-17T09:48:08.922Z,16.30
2022-12-17T09:50:54.742Z,17.48
2022-12-17T09:53:43.615Z,16.35
2022-12-17T09:56:31.972Z,15.60
2022-12-17T09:59:18.893Z,15.18
2022-12-17T10:02:04.468Z,16.10
2022-12-17T10:05:07.794Z,14.48
2022-12-17T10:07:55.640Z,15.40
2022-12-17T10:10:45.492Z,16.42
2022-12-17T10:13:32.978Z,16.23
2022-12-17T10:16:19.981Z,15.73
2022-12-17T10:19:05.750Z,16.33
2022-12-17T10:21:59.733Z,16.98
2022-12-17T10:24:45.257Z,16.33
2022-12-17T10:27:36.711Z,17.05
2022-12-17T10:30:22.468Z,17.48
2022-12-17T10:33:14.785Z,17.10
2022-12-17T10:36:00.350Z,16.90
2022-12-17T10:38:48.249Z,16.35
2022-12-17T10:41:40.541Z,16.20
2022-12-17T10:44:43.579Z,16.55
2022-12-17T10:47:33.070Z,15.98
2022-12-17T10:50:24.555Z,17.17
2022-12-17T10:53:10.626Z,11.65
2022-12-17T10:55:56.006Z,16.02
2022-12-17T10:58:44.370Z,15.77
2022-12-17T11:01:31.805Z,17.02
2022-12-17T11:04:17.403Z,15.93
2022-12-17T11:07:07.258Z,17.10
2022-12-17T11:10:06.971Z,15.90
2022-12-17T11:12:58.101Z,17.05
2022-12-17T11:15:50.518Z,16.95
2022-12-17T11:21:25.992Z,15.65
2022-12-17T11:24:22.014Z,15.95
2022-12-17T11:27:12.549Z,16.10
2022-12-17T11:29:58.042Z,16.20
2022-12-17T11:33:03.131Z,16.10
2022-12-17T11:35:54.234Z,15.50
2022-12-17T11:38:52.351Z,16.92
2022-12-17T11:41:49.379Z,17.23
2022-12-17T11:44:53.639Z,17.63
2022-12-17T11:47:47.975Z,18.58
2022-12-17T11:50:42.999Z,16.85
2022-12-17T11:53:40.408Z,17.50
2022-12-17T11:56:34.457Z,16.42
2022-12-17T11:59:30.087Z,17.45
2022-12-17T12:02:28.616Z,18.00
2022-12-17T12:05:32.654Z,18.63
2022-12-17T12:08:29.123Z,17.63
2022-12-17T12:11:20.719Z,17.77
2022-12-17T12:14:15.805Z,19.00
2022-12-17T12:17:08.412Z,18.02
2022-12-17T12:22:51.242Z,17.75
2022-12-17T12:25:45.544Z,17.63
2022-12-17T12:28:40.939Z,18.58
2022-12-17T12:31:38.025Z,17.65
2022-12-17T12:34:29.899Z,19.77
2022-12-17T12:37:19.091Z,19.17
2022-12-17T12:40:10.374Z,19.08
2022-12-17T12:43:01.831Z,18.48
2022-12-17T12:45:56.668Z,19.35
2022-12-17T12:48:52.345Z,17.98
2022-12-17T12:51:42.897Z,18.27
2022-12-17T12:54:41.497Z,18.85
2022-12-17T12:57:49.473Z,17.45
2022-12-17T13:00:42.608Z,16.30
2022-12-17T13:03:39.782Z,18.40
2022-12-17T13:06:08.132Z,17.65
2022-12-17T13:08:37.830Z,18.00
2022-12-17T13:11:28.117Z,17.92
2022-12-17T13:14:00.465Z,19.20
2022-12-17T13:19:20.679Z,19.73
2022-12-17T13:24:27.179Z,18.17
2022-12-17T13:26:55.159Z,18.88
2022-12-17T13:29:28.068Z,18.35
2022-12-17T13:32:04.713Z,19.50
2022-12-17T13:34:43.024Z,20.58
2022-12-17T13:37:16.812Z,19.15
2022-12-17T13:39:52.871Z,20.00
2022-12-17T13:42:28.490Z,19.85
2022-12-17T13:44:56.942Z,19.10
2022-12-17T13:47:27.715Z,19.80
2022-12-17T13:50:32.175Z,21.08
2022-12-17T13:52:45.756Z,19.33
2022-12-17T13:55:21.080Z,19.92
2022-12-17T13:57:50.848Z,19.55
2022-12-17T14:00:27.574Z,21.10
2022-12-17T14:02:55.675Z,21.45
2022-12-17T14:05:27.300Z,20.38
2022-12-17T14:07:56.194Z,20.75
2022-12-17T14:10:26.135Z,20.13
2022-12-17T14:13:04.036Z,22.35
2022-12-17T14:15:32.015Z,22.13
2022-12-17T14:18:00.418Z,22.05
2022-12-17T14:20:31.047Z,22.25
2022-12-17T14:23:02.233Z,21.52
2022-12-17T14:25:33.980Z,20.95
2022-12-17T14:28:03.849Z,21.80
2022-12-17T14:30:42.880Z,21.00
2022-12-17T14:33:27.670Z,20.75
2022-12-17T14:36:00.896Z,20.67
2022-12-17T14:38:38.297Z,20.35
2022-12-17T14:41:35.243Z,19.70
2022-12-17T14:44:04.769Z,20.67
2022-12-17T14:46:34.754Z,20.33
2022-12-17T14:49:05.872Z,22.02
2022-12-17T14:51:35.907Z,21.95
2022-12-17T14:54:08.588Z,20.35
2022-12-17T14:56:37.879Z,21.52
2022-12-17T14:59:05.730Z,21.25
2022-12-17T15:01:34.770Z,21.98
2022-12-17T15:04:04.102Z,21.23
2022-12-17T15:06:32.288Z,21.77
2022-12-17T15:09:00.134Z,22.35
2022-12-17T15:11:28.434Z,21.70
2022-12-17T15:13:57.644Z,21.73
2022-12-17T15:16:25.612Z,22.33
2022-12-17T15:18:53.497Z,20.27
2022-12-17T15:21:21.634Z,22.35
2022-12-17T15:23:49.792Z,21.02
2022-12-17T15:26:17.600Z,21.02
2022-12-17T15:28:46.715Z,20.63
2022-12-17T15:31:20.569Z,20.83
2022-12-17T15:33:51.078Z,23.27
2022-12-17T15:36:18.938Z,21.80
2022-12-17T15:38:47.232Z,20.98
2022-12-17T15:41:32.278Z,21.73
2022-12-17T15:44:00.234Z,22.42
2022-12-17T15:46:29.994Z,23.30
2022-12-17T15:48:57.937Z,22.85
2022-12-17T15:51:25.759Z,21.92
2022-12-17T15:53:53.623Z,23.13
2022-12-17T15:56:23.339Z,21.90
2022-12-17T15:58:51.465Z,21.50
2022-12-17T16:01:20.125Z,19.80
2022-12-17T16:03:49.647Z,20.35
2022-12-17T16:06:17.683Z,20.67
2022-12-17T16:08:45.557Z,20.13
2022-12-17T16:11:15.899Z,21.42
2022-12-17T16:13:43.819Z,22.58
2022-12-17T16:16:12.131Z,22.98
2022-12-17T16:18:40.164Z,22.23
2022-12-17T16:21:10.186Z,28.58
2022-12-17T16:23:38.096Z,28.67
2022-12-17T16:26:11.468Z,28.83
2022-12-17T16:28:39.891Z,28.13
2022-12-17T16:31:11.420Z,30.42
2022-12-17T16:33:41.594Z,27.07
2022-12-17T16:36:15.403Z,27.17
2022-12-17T16:38:45.159Z,27.10
2022-12-17T16:41:13.730Z,25.95
2022-12-17T16:43:41.847Z,21.95
2022-12-17T16:46:26.443Z,23.80
2022-12-17T16:48:55.321Z,25.08
2022-12-17T16:51:29.177Z,22.52
2022-12-17T16:53:58.250Z,21.90
2022-12-17T16:56:29.173Z,22.92
2022-12-17T16:58:57.477Z,21.42
2022-12-17T17:01:28.050Z,21.70
2022-12-17T17:03:57.288Z,21.73
2022-12-17T17:06:33.326Z,23.35
2022-12-17T17:09:05.140Z,23.45
2022-12-17T17:11:33.680Z,17.97
2022-12-17T17:14:02.022Z,21.08
2022-12-17T17:16:30.244Z,22.10
2022-12-17T17:18:58.556Z,22.00
2022-12-17T17:21:30.049Z,23.30
2022-12-17T17:23:59.787Z,25.77
2022-12-17T17:26:28.892Z,25.85
2022-12-17T17:28:56.779Z,27.48
2022-12-17T17:31:46.395Z,25.52
2022-12-17T17:34:14.969Z,26.50
2022-12-17T17:36:44.788Z,27.23
2022-12-17T17:39:15.360Z,31.65
2022-12-17T17:41:43.233Z,31.83
2022-12-17T17:44:13.460Z,32.17
2022-12-17T17:46:41.860Z,31.02
2022-12-17T17:49:10.554Z,29.70
2022-12-17T17:54:30.284Z,30.17
2022-12-17T17:56:58.159Z,28.90
2022-12-17T17:59:32.967Z,30.27
2022-12-17T18:02:02.664Z,30.00
2022-12-17T18:04:30.908Z,27.88
2022-12-17T18:09:48.057Z,29.40
2022-12-17T18:12:33.413Z,28.63
2022-12-17T18:15:18.421Z,31.73
2022-12-17T18:17:50.399Z,29.90
2022-12-17T18:20:18.836Z,30.42
2022-12-17T18:22:47.276Z,30.98
2022-12-17T18:25:37.201Z,28.38
2022-12-17T18:28:08.636Z,29.42
2022-12-17T18:30:39.236Z,30.38
2022-12-17T18:33:09.918Z,30.50
2022-12-17T18:35:40.864Z,29.90
2022-12-17T18:38:08.688Z,28.48
2022-12-17T18:40:38.081Z,28.08
2022-12-17T18:43:22.744Z,28.05
2022-12-17T18:45:50.615Z,27.33
2022-12-17T18:48:18.452Z,26.98
2022-12-17T18:50:46.738Z,27.17
2022-12-17T18:53:14.555Z,26.20
2022-12-17T18:55:43.767Z,24.38
2022-12-17T18:58:11.561Z,23.67
2022-12-17T19:00:39.744Z,25.42
2022-12-17T19:03:11.400Z,25.63
2022-12-17T19:05:45.846Z,25.67
2022-12-17T19:08:15.180Z,26.85
2022-12-17T19:10:45.687Z,24.05
2022-12-17T19:13:13.587Z,26.35
2022-12-17T19:15:41.430Z,26.45
2022-12-17T19:18:12.181Z,26.13
2022-12-17T19:20:40.056Z,27.20
2022-12-17T19:23:09.564Z,26.92
2022-12-17T19:25:40.427Z,25.48
2022-12-17T19:28:09.595Z,27.02
2022-12-17T19:30:37.460Z,27.60
2022-12-17T19:33:05.398Z,27.60
2022-12-17T19:35:36.320Z,26.58
2022-12-17T19:38:04.209Z,26.88
2022-12-17T19:40:32.066Z,28.65
2022-12-17T19:43:03.045Z,25.17
2022-12-17T19:45:33.219Z,26.60
2022-12-17T19:48:03.283Z,28.17
2022-12-17T19:50:31.128Z,26.90
2022-12-17T19:52:59.016Z,27.38
2022-12-17T19:55:29.253Z,25.80
2022-12-17T19:58:01.176Z,27.50
2022-12-17T20:00:30.358Z,29.02
2022-12-17T20:03:00.550Z,27.17
2022-12-17T20:05:28.952Z,27.67
2022-12-17T20:07:56.800Z,27.67
2022-12-17T20:10:24.606Z,30.15
2022-12-17T20:12:52.464Z,30.15
2022-12-17T20:15:21.546Z,27.77
2022-12-17T20:17:49.414Z,29.40
2022-12-17T20:20:18.673Z,28.38
2022-12-17T20:22:46.547Z,27.83
2022-12-17T20:25:16.152Z,29.52
2022-12-17T20:27:46.138Z,28.48
2022-12-17T20:30:15.670Z,28.30
2022-12-17T20:32:43.491Z,27.52
2022-12-17T20:35:11.336Z,27.05
2022-12-17T20:37:40.574Z,29.85
2022-12-17T20:40:09.804Z,27.33
2022-12-17T20:42:37.707Z,27.65
2022-12-17T20:45:09.386Z,24.80
2022-12-17T20:47:37.195Z,25.80
2022-12-17T20:50:05.651Z,26.17
2022-12-17T20:52:33.485Z,27.05
2022-12-17T20:55:05.504Z,25.67
2022-12-17T20:57:33.331Z,25.70
2022-12-17T21:00:01.131Z,26.25
2022-12-17T21:02:29.259Z,27.27
2022-12-17T21:04:57.235Z,27.67
2022-12-17T21:10:11.127Z,28.35
2022-12-17T21:13:05.157Z,28.85
2022-12-17T21:15:33.153Z,26.60
2022-12-17T21:18:02.364Z,27.17
2022-12-17T21:20:34.231Z,27.00
2022-12-17T21:25:38.808Z,25.17
2022-12-17T21:28:06.642Z,24.95
2022-12-17T21:30:37.306Z,26.42
2022-12-17T21:33:05.259Z,26.50
2022-12-17T21:35:33.146Z,26.55
2022-12-17T21:38:00.950Z,26.02
2022-12-17T21:40:28.787Z,26.55
2022-12-17T21:43:03.650Z,25.15
2022-12-17T21:45:36.736Z,27.13
2022-12-17T21:48:05.504Z,24.08
2022-12-17T21:50:41.875Z,23.52
2022-12-17T21:53:10.794Z,22.92
2022-12-17T21:55:39.112Z,24.15
2022-12-17T21:58:08.521Z,25.10
2022-12-17T22:00:36.587Z,25.40
2022-12-17T22:03:04.790Z,25.10
2022-12-17T22:05:32.623Z,25.55
2022-12-17T22:08:00.449Z,25.75
2022-12-17T22:10:40.440Z,25.75
2022-12-17T22:13:35.440Z,23.40
2022-12-17T22:16:06.883Z,23.30
2022-12-17T22:18:34.758Z,24.48
2022-12-17T22:21:03.135Z,25.48
2022-12-17T22:23:30.974Z,24.23
2022-12-17T22:25:59.136Z,24.92
2022-12-17T22:28:28.301Z,28.05
2022-12-17T22:31:13.836Z,26.33
2022-12-17T22:34:20.205Z,26.92
2022-12-17T22:38:51.892Z,23.85
2022-12-17T22:42:59.168Z,24.42
2022-12-17T22:44:33.817Z,26.17
2022-12-17T22:45:14.456Z,27.15
2022-12-17T22:47:42.776Z,29.15
2022-12-17T22:50:11.721Z,29.65
2022-12-17T22:52:40.048Z,28.42
2022-12-17T22:55:09.048Z,25.13
2022-12-17T22:57:38.425Z,25.98
2022-12-17T23:00:12.036Z,23.88
2022-12-17T23:02:41.270Z,25.73
2022-12-17T23:05:09.937Z,23.33
2022-12-17T23:07:37.889Z,26.67
2022-12-17T23:10:06.365Z,23.95
2022-12-17T23:12:52.493Z,24.35
2022-12-17T23:15:22.670Z,22.98
2022-12-17T23:17:53.284Z,22.27
2022-12-17T23:20:21.746Z,22.75
2022-12-17T23:22:49.639Z,22.73
2022-12-17T23:25:17.641Z,21.00
2022-12-17T23:27:45.975Z,20.63
2022-12-17T23:30:15.866Z,21.08
2022-12-17T23:32:44.358Z,22.63
2022-12-17T23:35:14.514Z,22.85
2022-12-17T23:37:43.009Z,23.38
2022-12-17T23:40:12.140Z,22.67
2022-12-17T23:42:40.434Z,22.50
2022-12-17T23:45:11.288Z,25.02
2022-12-17T23:47:39.842Z,24.13
2022-12-17T23:50:09.498Z,22.67
2022-12-17T23:52:39.104Z,23.38
2022-12-17T23:55:07.712Z,23.25
2022-12-17T23:57:35.531Z,23.20
